Time;durP1;ratioP1;P1;durP2;ratioP2;P2;SDS_P1;SDS_P2;PMS_P1;PMS_P2;Temp;Humidity;BMP_temperature;BMP_pressure;BME280_temperature;BME280_humidity;BME280_pressure;Samples;Min_cycle;Max_cycle;Signal;HPM_P1;HPM_P2
2023/05/24 00:01:41;;;;;;;;;;;;;;;11.55;100.00;96144.78;5045607;28;19983;-77
2023/05/24 00:04:07;;;;;;;;;;;;;;;11.70;100.00;96140.44;5055075;28;20443;-77
2023/05/24 00:06:36;;;;;;;;;;;;;;;11.70;100.00;96144.78;5046989;28;19933;-75
2023/05/24 00:09:02;;;;;;;;;;;;;;;11.71;100.00;96141.25;5058856;28;19964;-74
2023/05/24 00:11:30;;;;;;;;;;;;;;;11.70;100.00;96137.00;5053872;28;19995;-75
2023/05/24 00:13:56;;;;;;;;;;;;;;;11.64;100.00;96133.00;5064689;28;19924;-74
2023/05/24 00:16:22;;;;;;;;;;;;;;;11.57;100.00;96137.78;5056110;28;19979;-74
2023/05/24 00:18:49;;;;;;;;;;;;;;;11.67;100.00;96137.19;5055107;28;19932;-75
2023/05/24 00:21:15;;;;;;;;;;;;;;;11.70;100.00;96135.25;5067845;28;19929;-75
2023/05/24 00:23:42;;;;;;;;;;;;;;;11.72;100.00;96132.56;5048135;28;19940;-75
2023/05/24 00:26:09;;;;;;;;;;;;;;;11.90;100.00;96133.22;5060669;28;20291;-76
2023/05/24 00:28:37;;;;;;;;;;;;;;;11.79;100.00;96132.09;5052025;28;19964;-75
2023/05/24 00:31:03;;;;;;;;;;;;;;;11.91;100.00;96127.94;5073215;28;20302;-75
2023/05/24 00:33:29;;;;;;;;;;;;;;;11.97;100.00;96129.31;5062542;28;19936;-75
2023/05/24 00:35:56;;;;;;;;;;;;;;;11.99;100.00;96127.47;5072762;28;19924;-75
2023/05/24 00:38:22;;;;;;;;;;;;;;;11.86;100.00;96133.41;5059592;28;19928;-75
2023/05/24 00:40:48;;;;;;;;;;;;;;;11.95;100.00;96126.00;5050512;28;20016;-75
2023/05/24 00:43:15;;;;;;;;;;;;;;;11.99;100.00;96127.47;5059560;28;19929;-77
2023/05/24 00:45:42;;;;;;;;;;;;;;;11.85;100.00;96123.13;5057965;28;20375;-77
2023/05/24 00:48:09;;;;;;;;;;;;;;;11.90;100.00;96131.44;5065999;28;19948;-76
2023/05/24 00:50:36;;;;;;;;;;;;;;;11.56;100.00;96125.72;5051212;28;20046;-74
2023/05/24 00:53:03;;;;;;;;;;;;;;;11.71;100.00;96123.09;5050647;28;19925;-77
2023/05/24 00:55:29;;;;;;;;;;;;;;;11.47;100.00;96128.03;5046532;28;19991;-77
2023/05/24 00:57:56;;;;;;;;;;;;;;;11.66;100.00;96120.81;5057195;28;19928;-75
2023/05/24 01:00:23;;;;;;;;;;;;;;;11.62;100.00;96127.09;5055528;28;20390;-77
2023/05/24 01:02:50;;;;;;;;;;;;;;;11.75;100.00;96128.00;5060608;28;20350;-76
2023/05/24 01:05:17;;;;;;;;;;;;;;;11.77;100.00;96118.38;5055328;28;19928;-76
2023/05/24 01:07:48;;;;;;;;;;;;;;;11.57;100.00;96123.97;5047754;28;19971;-76
2023/05/24 01:10:17;;;;;;;;;;;;;;;11.52;100.00;96113.03;5060287;28;19928;-76
2023/05/24 01:12:51;;;;;;;;;;;;;;;11.41;100.00;96121.44;5046126;28;20387;-76
2023/05/24 01:15:21;;;;;;;;;;;;;;;11.39;100.00;96113.78;5062742;28;19931;-76
2023/05/24 01:17:51;;;;;;;;;;;;;;;11.39;100.00;96112.94;5053937;28;19928;-76
2023/05/24 01:20:21;;;;;;;;;;;;;;;11.43;100.00;96117.03;5060460;28;20287;-76
2023/05/24 01:23:06;;;;;;;;;;;;;;;11.61;100.00;96120.25;5047789;28;19999;-76
2023/05/24 01:25:56;;;;;;;;;;;;;;;11.62;100.00;96121.91;5053694;28;20414;-76
2023/05/24 01:28:24;;;;;;;;;;;;;;;11.54;100.00;96121.56;5029179;28;20565;-76
2023/05/24 01:30:51;;;;;;;;;;;;;;;11.33;100.00;96118.50;5057853;28;19936;-76
2023/05/24 01:33:17;;;;;;;;;;;;;;;11.38;100.00;96114.72;5048720;28;19963;-76
2023/05/24 01:35:43;;;;;;;;;;;;;;;11.19;100.00;96116.72;5054487;28;19929;-76
2023/05/24 01:38:10;;;;;;;;;;;;;;;11.28;100.00;96108.41;5047824;28;19929;-76
2023/05/24 01:40:37;;;;;;;;;;;;;;;11.42;100.00;96110.19;5057310;28;19931;-76
2023/05/24 01:43:04;;;;;;;;;;;;;;;11.48;100.00;96108.94;5057953;28;19929;-76
2023/05/24 01:45:35;;;;;;;;;;;;;;;11.41;100.00;96110.25;5047172;28;19982;-76
2023/05/24 01:48:04;;;;;;;;;;;;;;;11.41;100.00;96115.44;5054820;28;19925;-76
2023/05/24 01:50:32;;;;;;;;;;;;;;;11.11;100.00;96118.94;5039072;28;19972;-76
2023/05/24 01:53:02;;;;;;;;;;;;;;;11.34;100.00;96126.16;5062022;28;19966;-76
2023/05/24 01:55:29;;;;;;;;;;;;;;;11.43;100.00;96119.63;5051887;28;19982;-76
2023/05/24 01:57:58;;;;;;;;;;;;;;;11.59;100.00;96116.91;5051985;28;19925;-76
2023/05/24 02:00:24;;;;;;;;;;;;;;;11.31;100.00;96115.16;5046742;28;19956;-76
2023/05/24 02:02:52;;;;;;;;;;;;;;;11.42;100.00;96122.28;5056341;28;20437;-76
2023/05/24 02:05:18;;;;;;;;;;;;;;;11.32;100.00;96116.84;5056808;28;19928;-76
2023/05/24 02:07:45;;;;;;;;;;;;;;;11.10;100.00;96118.09;5044183;28;19933;-76
2023/05/24 02:10:11;;;;;;;;;;;;;;;11.15;100.00;96113.47;5041389;28;19948;-76
2023/05/24 02:12:37;;;;;;;;;;;;;;;11.09;100.00;96120.81;5044910;28;19929;-75
2023/05/24 02:15:05;;;;;;;;;;;;;;;11.09;100.00;96115.63;5066929;28;20322;-75
2023/05/24 02:17:31;;;;;;;;;;;;;;;11.11;100.00;96116.34;5062746;28;20418;-76
2023/05/24 02:19:59;;;;;;;;;;;;;;;11.03;100.00;96113.38;5055465;28;19925;-76
2023/05/24 02:22:26;;;;;;;;;;;;;;;11.09;100.00;96118.22;5040263;28;19968;-76
2023/05/24 02:24:52;;;;;;;;;;;;;;;11.14;100.00;96114.41;5044969;28;19933;-76
2023/05/24 02:27:18;;;;;;;;;;;;;;;10.95;100.00;96124.19;5049617;28;19932;-76
2023/05/24 02:29:46;;;;;;;;;;;;;;;11.18;100.00;96125.44;5053187;28;20335;-76
2023/05/24 02:32:12;;;;;;;;;;;;;;;10.99;100.00;96125.69;5042086;28;19925;-75
2023/05/24 02:34:39;;;;;;;;;;;;;;;11.18;100.00;96124.59;5047969;28;20341;-76
2023/05/24 02:37:06;;;;;;;;;;;;;;;11.08;100.00;96119.94;5065168;28;20011;-74
2023/05/24 02:39:33;;;;;;;;;;;;;;;11.05;100.00;96119.28;5057362;28;19931;-74
2023/05/24 02:41:59;;;;;;;;;;;;;;;10.92;100.00;96123.53;5056272;28;19928;-75
2023/05/24 02:44:25;;;;;;;;;;;;;;;10.58;100.00;96134.09;5060374;28;19925;-74
2023/05/24 02:46:51;;;;;;;;;;;;;;;10.79;100.00;96124.25;5053610;28;20410;-75
2023/05/24 02:49:18;;;;;;;;;;;;;;;10.49;100.00;96121.66;5063184;28;20353;-75
2023/05/24 02:51:44;;;;;;;;;;;;;;;10.42;100.00;96125.53;5067854;28;19932;-74
2023/05/24 02:54:12;;;;;;;;;;;;;;;10.45;100.00;96122.75;5058134;28;20023;-77
2023/05/24 02:56:39;;;;;;;;;;;;;;;10.38;100.00;96118.84;5061169;28;19924;-77
2023/05/24 02:59:05;;;;;;;;;;;;;;;10.46;100.00;96116.69;5059982;28;20032;-76
2023/05/24 03:01:33;;;;;;;;;;;;;;;10.47;100.00;96120.09;5057684;28;19928;-77
2023/05/24 03:03:59;;;;;;;;;;;;;;;10.48;100.00;96111.41;5067344;28;20020;-76
2023/05/24 03:06:25;;;;;;;;;;;;;;;10.43;100.00;96116.00;5048097;28;19971;-74
2023/05/24 03:08:52;;;;;;;;;;;;;;;10.40;100.00;96117.84;5062447;28;19925;-76
2023/05/24 03:11:20;;;;;;;;;;;;;;;10.49;100.00;96123.41;5051611;28;19925;-76
2023/05/24 03:13:47;;;;;;;;;;;;;;;10.45;100.00;96124.50;5063817;28;19930;-76
2023/05/24 03:16:13;;;;;;;;;;;;;;;10.27;100.00;96124.66;5056577;28;19948;-76
2023/05/24 03:18:39;;;;;;;;;;;;;;;10.51;100.00;96127.59;5061705;28;19973;-76
2023/05/24 03:21:06;;;;;;;;;;;;;;;10.30;100.00;96127.03;5061337;28;19924;-76
2023/05/24 03:23:32;;;;;;;;;;;;;;;10.60;100.00;96118.44;5046343;28;20380;-76
2023/05/24 03:25:58;;;;;;;;;;;;;;;10.58;100.00;96122.91;5062961;28;19928;-76
2023/05/24 03:28:26;;;;;;;;;;;;;;;10.70;100.00;96114.41;5046921;28;19938;-76
2023/05/24 03:30:52;;;;;;;;;;;;;;;10.59;100.00;96121.97;5066092;28;19925;-76
2023/05/24 03:33:18;;;;;;;;;;;;;;;10.59;100.00;96119.38;5051961;28;19929;-76
2023/05/24 03:35:45;;;;;;;;;;;;;;;10.47;100.00;96125.28;5065021;28;20387;-74
2023/05/24 03:38:11;;;;;;;;;;;;;;;10.61;100.00;96120.16;5062644;28;19924;-74
2023/05/24 03:40:37;;;;;;;;;;;;;;;10.64;100.00;96117.34;5054920;28;19925;-74
2023/05/24 03:43:03;;;;;;;;;;;;;;;10.57;100.00;96116.06;5064626;28;19928;-75
2023/05/24 03:45:31;;;;;;;;;;;;;;;10.41;100.00;96119.50;5055080;28;19928;-74
2023/05/24 03:47:58;;;;;;;;;;;;;;;10.49;100.00;96126.00;5063365;28;19977;-75
2023/05/24 03:50:24;;;;;;;;;;;;;;;10.41;100.00;96121.25;5055292;28;19972;-74
2023/05/24 03:52:51;;;;;;;;;;;;;;;10.16;100.00;96122.63;5060743;28;19929;-76
2023/05/24 03:55:18;;;;;;;;;;;;;;;10.41;100.00;96126.44;5056366;28;19924;-77
2023/05/24 03:57:44;;;;;;;;;;;;;;;10.55;100.00;96116.13;5062251;28;19929;-76
2023/05/24 04:00:11;;;;;;;;;;;;;;;10.70;100.00;96109.25;5056399;28;19925;-76
2023/05/24 04:02:38;;;;;;;;;;;;;;;10.71;100.00;96105.72;5059508;28;20384;-76
2023/05/24 04:05:09;;;;;;;;;;;;;;;10.41;100.00;96109.13;5060677;28;19932;-76
2023/05/24 04:07:35;;;;;;;;;;;;;;;10.33;100.00;96106.16;5053261;28;19925;-76
2023/05/24 04:10:02;;;;;;;;;;;;;;;10.31;100.00;96107.19;5062913;28;20355;-76
2023/05/24 04:12:28;;;;;;;;;;;;;;;10.47;100.00;96107.97;5043542;28;19932;-76
2023/05/24 04:14:54;;;;;;;;;;;;;;;10.48;100.00;96111.41;5063073;28;19933;-76
2023/05/24 04:17:23;;;;;;;;;;;;;;;10.17;100.00;96100.97;5048470;28;19924;-77
2023/05/24 04:19:51;;;;;;;;;;;;;;;10.47;100.00;96109.72;5057440;28;20427;-76
2023/05/24 04:22:17;;;;;;;;;;;;;;;10.40;100.00;96111.84;5057350;28;20017;-76
2023/05/24 04:24:43;;;;;;;;;;;;;;;10.32;100.00;96109.69;5051187;28;19967;-76
2023/05/24 04:27:10;;;;;;;;;;;;;;;10.29;100.00;96114.19;5054009;28;19978;-75
2023/05/24 04:29:36;;;;;;;;;;;;;;;10.46;100.00;96121.03;5058280;28;20302;-76
2023/05/24 04:32:02;;;;;;;;;;;;;;;10.34;100.00;96118.19;5054251;28;19931;-76
2023/05/24 04:34:32;;;;;;;;;;;;;;;10.52;100.00;96118.91;5052833;28;19936;-76
2023/05/24 04:37:00;;;;;;;;;;;;;;;10.48;100.00;96116.56;5058944;28;20389;-76
2023/05/24 04:39:27;;;;;;;;;;;;;;;10.41;100.00;96121.25;5054973;28;20409;-76
2023/05/24 04:41:54;;;;;;;;;;;;;;;10.29;100.00;96129.72;5048519;28;19982;-75
2023/05/24 04:44:20;;;;;;;;;;;;;;;10.13;100.00;96132.31;5060564;28;19934;-75
2023/05/24 04:46:46;;;;;;;;;;;;;;;10.21;100.00;96129.28;5048856;28;19929;-75
2023/05/24 04:49:12;;;;;;;;;;;;;;;10.26;100.00;96135.91;5040737;28;19925;-75
2023/05/24 04:51:39;;;;;;;;;;;;;;;10.15;100.00;96131.28;5046293;28;19975;-77
2023/05/24 04:54:08;;;;;;;;;;;;;;;10.07;100.00;96140.41;5046233;28;20380;-77
2023/05/24 04:56:34;;;;;;;;;;;;;;;10.09;100.00;96133.41;5057175;28;19975;-75
2023/05/24 04:59:01;;;;;;;;;;;;;;;10.30;100.00;96152.09;5047054;28;20007;-75
2023/05/24 05:01:27;;;;;;;;;;;;;;;10.16;100.00;96134.72;5050694;28;19925;-75
2023/05/24 05:03:53;;;;;;;;;;;;;;;10.22;100.00;96149.91;5049046;28;19932;-75
2023/05/24 05:06:20;;;;;;;;;;;;;;;10.22;100.00;96143.91;5050982;28;19971;-75
2023/05/24 05:08:46;;;;;;;;;;;;;;;10.21;100.00;96147.41;5048167;28;20326;-74
2023/05/24 05:11:14;;;;;;;;;;;;;;;9.93;100.00;96138.56;5039983;28;19925;-74
2023/05/24 05:13:40;;;;;;;;;;;;;;;10.08;100.00;96149.81;5041494;28;19936;-74
2023/05/24 05:16:06;;;;;;;;;;;;;;;10.02;100.00;96145.81;5059664;28;20288;-74
2023/05/24 05:18:33;;;;;;;;;;;;;;;10.12;100.00;96149.59;5059727;28;19925;-74
2023/05/24 05:21:00;;;;;;;;;;;;;;;10.29;100.00;96150.44;5053788;28;20753;-74
2023/05/24 05:23:26;;;;;;;;;;;;;;;10.26;100.00;96148.84;5053010;28;20295;-74
2023/05/24 05:25:52;;;;;;;;;;;;;;;10.37;100.00;96149.06;5063422;28;19928;-74
2023/05/24 05:28:20;;;;;;;;;;;;;;;10.31;100.00;96146.84;5037092;28;19929;-74
2023/05/24 05:30:46;;;;;;;;;;;;;;;10.32;100.00;96145.91;5053810;28;19974;-74
2023/05/24 05:33:12;;;;;;;;;;;;;;;10.37;100.00;96141.31;5051172;28;19936;-74
2023/05/24 05:35:38;;;;;;;;;;;;;;;10.49;100.00;96146.72;5062694;28;19998;-79
2023/05/24 05:38:05;;;;;;;;;;;;;;;10.60;100.00;96147.78;5060460;28;19924;-76
2023/05/24 05:40:31;;;;;;;;;;;;;;;10.44;100.00;96149.56;5041256;28;20384;-78
2023/05/24 05:42:57;;;;;;;;;;;;;;;10.29;100.00;96148.69;5055043;28;19932;-77
2023/05/24 05:45:25;;;;;;;;;;;;;;;10.37;100.00;96150.84;5048753;28;19943;-77
2023/05/24 05:47:51;;;;;;;;;;;;;;;10.54;100.00;96139.53;5060430;28;19924;-77
2023/05/24 05:50:17;;;;;;;;;;;;;;;10.32;100.00;96145.09;5047022;28;19924;-77
2023/05/24 05:52:44;;;;;;;;;;;;;;;10.57;100.00;96132.44;5051675;28;20522;-78
2023/05/24 05:55:11;;;;;;;;;;;;;;;10.70;100.00;96145.50;5057388;28;19925;-77
2023/05/24 05:57:37;;;;;;;;;;;;;;;10.36;100.00;96136.22;5058051;28;19929;-79
2023/05/24 06:00:04;;;;;;;;;;;;;;;10.19;100.00;96142.31;5057319;28;20303;-78
2023/05/24 06:02:31;;;;;;;;;;;;;;;10.12;100.00;96149.59;5054462;28;20004;-78
2023/05/24 06:04:58;;;;;;;;;;;;;;;10.06;100.00;96146.50;5058576;28;19928;-78
2023/05/24 06:07:24;;;;;;;;;;;;;;;10.27;100.00;96141.91;5039471;28;19929;-77
2023/05/24 06:09:50;;;;;;;;;;;;;;;10.06;100.00;96142.16;5057151;28;19964;-76
2023/05/24 06:12:17;;;;;;;;;;;;;;;10.05;100.00;96143.06;5054145;28;19977;-75
2023/05/24 06:14:43;;;;;;;;;;;;;;;10.04;100.00;96141.38;5054055;28;20379;-76
2023/05/24 06:17:10;;;;;;;;;;;;;;;10.36;100.00;96142.25;5054256;28;19998;-76
2023/05/24 06:19:37;;;;;;;;;;;;;;;10.36;100.00;96141.41;5056929;28;19933;-76
2023/05/24 06:22:04;;;;;;;;;;;;;;;10.55;100.00;96147.22;5056688;28;19999;-76
2023/05/24 06:24:33;;;;;;;;;;;;;;;10.38;100.00;96140.41;5052232;28;19924;-75
2023/05/24 06:26:59;;;;;;;;;;;;;;;10.38;100.00;96135.22;5048846;28;19929;-76
2023/05/24 06:29:25;;;;;;;;;;;;;;;10.29;100.00;96137.50;5046064;28;19971;-76
2023/05/24 06:31:51;;;;;;;;;;;;;;;10.03;100.00;96144.91;5045540;28;19929;-76
2023/05/24 06:34:19;;;;;;;;;;;;;;;10.29;100.00;96138.31;5063896;28;19924;-76
2023/05/24 06:36:47;;;;;;;;;;;;;;;10.45;100.00;96143.47;5055010;28;19932;-74
2023/05/24 06:39:14;;;;;;;;;;;;;;;10.36;100.00;96151.75;5049296;28;19982;-76
2023/05/24 06:41:41;;;;;;;;;;;;;;;10.47;100.00;96148.56;5050804;28;19924;-76
2023/05/24 06:44:07;;;;;;;;;;;;;;;10.61;100.00;96152.06;5053225;28;19997;-77
2023/05/24 06:46:34;;;;;;;;;;;;;;;10.17;100.00;96155.34;5058348;28;19928;-76
2023/05/24 06:49:00;;;;;;;;;;;;;;;10.15;100.00;96154.56;5059950;28;20035;-79
2023/05/24 06:51:26;;;;;;;;;;;;;;;10.29;100.00;96156.44;5061230;28;19935;-78
2023/05/24 06:53:54;;;;;;;;;;;;;;;10.46;100.00;96155.50;5059839;28;19933;-77
2023/05/24 06:56:20;;;;;;;;;;;;;;;10.48;100.00;96161.44;5061706;28;19993;-78
2023/05/24 06:58:47;;;;;;;;;;;;;;;10.60;100.00;96159.91;5064165;28;19929;-80
2023/05/24 07:01:14;;;;;;;;;;;;;;;10.76;100.00;96165.88;5057347;28;19992;-77
2023/05/24 07:03:40;;;;;;;;;;;;;;;10.68;100.00;96168.09;5058332;28;19968;-76
2023/05/24 07:06:08;;;;;;;;;;;;;;;10.61;100.00;96169.34;5056067;28;20308;-77
2023/05/24 07:08:35;;;;;;;;;;;;;;;10.54;100.00;96176.63;5050339;28;20007;-77
2023/05/24 07:11:02;;;;;;;;;;;;;;;10.58;100.00;96178.13;5053192;28;19935;-79
2023/05/24 07:13:29;;;;;;;;;;;;;;;10.63;100.00;96181.28;5041513;28;20394;-77
2023/05/24 07:15:55;;;;;;;;;;;;;;;10.56;100.00;96181.72;5050508;28;20345;-77
2023/05/24 07:18:21;;;;;;;;;;;;;;;10.25;100.00;96195.50;5049060;28;19928;-78
2023/05/24 07:20:47;;;;;;;;;;;;;;;10.51;100.00;96196.69;5055617;28;19943;-78
2023/05/24 07:23:14;;;;;;;;;;;;;;;10.24;100.00;96196.44;5055522;28;19956;-79
2023/05/24 07:25:40;;;;;;;;;;;;;;;10.28;100.00;96195.38;5051486;28;19929;-79
2023/05/24 07:28:08;;;;;;;;;;;;;;;9.96;100.00;96189.31;5055266;28;19968;-79
2023/05/24 07:30:34;;;;;;;;;;;;;;;10.19;100.00;96201.84;5054465;28;19952;-78
2023/05/24 07:33:01;;;;;;;;;;;;;;;10.25;100.00;96203.28;5058046;28;20016;-78
2023/05/24 07:35:28;;;;;;;;;;;;;;;10.59;100.00;96204.84;5063784;28;20399;-77
2023/05/24 07:37:55;;;;;;;;;;;;;;;10.58;100.00;96214.38;5056825;28;19936;-75
2023/05/24 07:40:21;;;;;;;;;;;;;;;10.45;100.00;96217.72;5038001;28;19972;-76
2023/05/24 07:42:48;;;;;;;;;;;;;;;10.11;100.00;96216.94;5054805;28;19982;-72
2023/05/24 07:45:15;;;;;;;;;;;;;;;10.37;100.00;96212.97;5054113;28;19929;-73
2023/05/24 07:47:42;;;;;;;;;;;;;;;10.40;100.00;96215.41;5056740;28;20399;-73
2023/05/24 07:50:08;;;;;;;;;;;;;;;10.58;100.00;96221.31;5049043;28;20342;-72
2023/05/24 07:52:35;;;;;;;;;;;;;;;10.11;100.00;96211.78;5045275;28;19925;-72
2023/05/24 07:55:01;;;;;;;;;;;;;;;10.48;100.00;96215.81;5049374;28;19924;-73
2023/05/24 07:57:28;;;;;;;;;;;;;;;10.48;100.00;96220.16;5057525;28;20019;-73
2023/05/24 07:59:55;;;;;;;;;;;;;;;10.60;100.00;96217.72;5047592;28;19936;-73
2023/05/24 08:02:23;;;;;;;;;;;;;;;10.70;100.00;96217.22;5062039;28;19931;-75
2023/05/24 08:04:49;;;;;;;;;;;;;;;10.62;100.00;96215.06;5048196;28;20028;-73
2023/05/24 08:07:16;;;;;;;;;;;;;;;10.69;100.00;96223.31;5056707;28;19987;-74
2023/05/24 08:09:42;;;;;;;;;;;;;;;10.83;100.00;96216.44;5053307;28;20288;-73
2023/05/24 08:12:09;;;;;;;;;;;;;;;10.91;100.00;96226.38;5044624;28;19929;-74
2023/05/24 08:14:35;;;;;;;;;;;;;;;10.96;100.00;96220.91;5052381;28;19925;-73
2023/05/24 08:17:01;;;;;;;;;;;;;;;11.14;100.00;96225.03;5052354;28;19947;-74
2023/05/24 08:19:34;;;;;;;;;;;;;;;11.22;100.00;96229.78;5061663;28;19938;-74
2023/05/24 08:22:03;;;;;;;;;;;;;;;11.06;100.00;96228.09;5050548;28;19925;-73
2023/05/24 08:24:29;;;;;;;;;;;;;;;11.21;100.00;96230.72;5051507;28;20318;-73
2023/05/24 08:26:56;;;;;;;;;;;;;;;11.25;100.00;96229.63;5053987;28;19925;-73
2023/05/24 08:29:22;;;;;;;;;;;;;;;11.13;100.00;96239.78;5057379;28;19929;-73
2023/05/24 08:31:49;;;;;;;;;;;;;;;11.23;100.00;96234.88;5061365;28;19932;-73
2023/05/24 08:34:15;;;;;;;;;;;;;;;11.44;100.00;96231.97;5064185;28;20435;-73
2023/05/24 08:36:43;;;;;;;;;;;;;;;11.32;100.00;96233.53;5060293;28;19929;-74
2023/05/24 08:39:09;;;;;;;;;;;;;;;11.41;100.00;96234.72;5064595;28;19926;-73
2023/05/24 08:41:37;;;;;;;;;;;;;;;11.60;100.00;96228.34;5059987;28;19948;-73
2023/05/24 08:44:05;;;;;;;;;;;;;;;11.69;100.00;96226.16;5063882;28;20000;-73
2023/05/24 08:46:32;;;;;;;;;;;;;;;11.78;100.00;96230.78;5056905;28;20004;-73
2023/05/24 08:48:59;;;;;;;;;;;;;;;11.74;100.00;96237.91;5057456;28;19975;-73
2023/05/24 08:51:26;;;;;;;;;;;;;;;11.68;100.00;96235.72;5057939;28;20565;-73
2023/05/24 08:53:54;;;;;;;;;;;;;;;11.67;100.00;96244.41;5059297;28;20447;-74
2023/05/24 08:56:22;;;;;;;;;;;;;;;11.72;100.00;96244.97;5057561;28;20279;-74
2023/05/24 08:58:49;;;;;;;;;;;;;;;11.81;100.00;96234.03;5063293;28;19932;-73
2023/05/24 09:01:16;;;;;;;;;;;;;;;11.96;100.00;96229.72;5054758;28;19929;-73
2023/05/24 09:03:43;;;;;;;;;;;;;;;11.96;100.00;96232.31;5063114;28;20395;-73
2023/05/24 09:06:10;;;;;;;;;;;;;;;11.57;100.00;96233.75;5047993;28;19929;-74
2023/05/24 09:08:37;;;;;;;;;;;;;;;11.67;100.00;96228.84;5058754;28;19924;-73
2023/05/24 09:11:05;;;;;;;;;;;;;;;11.27;100.00;96238.97;5051722;28;19959;-73
2023/05/24 09:13:31;;;;;;;;;;;;;;;11.23;100.00;96247.84;5057439;28;19935;-70
2023/05/24 09:15:59;;;;;;;;;;;;;;;11.36;100.00;96243.63;5056482;28;19936;-73
2023/05/24 09:18:25;;;;;;;;;;;;;;;11.28;100.00;96245.00;5041253;28;19924;-73
2023/05/24 09:20:51;;;;;;;;;;;;;;;11.44;100.00;96240.56;5042883;28;20327;-73
2023/05/24 09:23:17;;;;;;;;;;;;;;;11.43;100.00;96243.28;5038302;28;19932;-73
2023/05/24 09:25:44;;;;;;;;;;;;;;;11.29;100.00;96247.50;5040720;28;19929;-73
2023/05/24 09:28:13;;;;;;;;;;;;;;;11.33;100.00;96250.75;5051130;28;19936;-73
2023/05/24 09:30:39;;;;;;;;;;;;;;;11.23;100.00;96252.19;5046734;28;19929;-73
2023/05/24 09:33:07;;;;;;;;;;;;;;;11.12;100.00;96248.47;5057245;28;20343;-73
2023/05/24 09:35:35;;;;;;;;;;;;;;;11.30;100.00;96253.50;5059663;28;19939;-73
2023/05/24 09:38:02;;;;;;;;;;;;;;;11.02;100.00;96249.09;5050782;28;19933;-73
2023/05/24 09:40:29;;;;;;;;;;;;;;;11.07;100.00;96250.47;5047421;28;20024;-73
2023/05/24 09:43:06;;;;;;;;;;;;;;;10.98;100.00;96245.00;5058862;28;19989;-74
2023/05/24 09:45:37;;;;;;;;;;;;;;;10.65;100.00;96243.38;5044299;28;20407;-73
2023/05/24 09:48:09;;;;;;;;;;;;;;;10.69;100.00;96239.69;5048670;28;19974;-73
2023/05/24 09:50:35;;;;;;;;;;;;;;;10.75;100.00;96238.50;5041538;28;19975;-74
2023/05/24 09:53:02;;;;;;;;;;;;;;;10.87;100.00;96238.66;5040686;28;19925;-72
2023/05/24 09:55:29;;;;;;;;;;;;;;;10.74;100.00;96242.84;5035242;28;20284;-73
2023/05/24 09:58:02;;;;;;;;;;;;;;;10.92;100.00;96248.75;5047175;28;19933;-72
2023/05/24 10:00:29;;;;;;;;;;;;;;;11.22;100.00;96250.53;5044579;28;20043;-75
2023/05/24 10:03:05;;;;;;;;;;;;;;;11.26;100.00;96249.44;5054900;28;20417;-76
2023/05/24 10:05:31;;;;;;;;;;;;;;;11.31;100.00;96247.38;5054109;28;20366;-75
2023/05/24 10:07:58;;;;;;;;;;;;;;;11.34;100.00;96253.22;5052499;28;19925;-75
2023/05/24 10:10:27;;;;;;;;;;;;;;;11.22;100.00;96253.94;5057555;28;20027;-76
2023/05/24 10:12:53;;;;;;;;;;;;;;;11.39;100.00;96259.00;5049995;28;19925;-75
2023/05/24 10:15:20;;;;;;;;;;;;;;;11.22;100.00;96255.72;5058341;28;20356;-75
2023/05/24 10:17:46;;;;;;;;;;;;;;;11.31;100.00;96249.97;5048957;28;19933;-75
2023/05/24 10:20:14;;;;;;;;;;;;;;;11.26;100.00;96250.25;5059912;28;20517;-75
2023/05/24 10:22:43;;;;;;;;;;;;;;;11.25;100.00;96256.38;5052118;28;20595;-75
2023/05/24 10:25:11;;;;;;;;;;;;;;;11.42;100.00;96251.94;5052090;28;19932;-75
2023/05/24 10:27:38;;;;;;;;;;;;;;;11.31;100.00;96250.84;5053129;28;19924;-75
2023/05/24 10:30:10;;;;;;;;;;;;;;;11.32;100.00;96251.69;5059697;28;19985;-75
2023/05/24 10:32:38;;;;;;;;;;;;;;;11.37;100.00;96250.47;5056593;28;20016;-75
2023/05/24 10:35:06;;;;;;;;;;;;;;;11.33;100.00;96246.38;5056203;28;19970;-75
2023/05/24 10:37:34;;;;;;;;;;;;;;;11.35;100.00;96247.16;5052113;28;19925;-75
2023/05/24 10:40:00;;;;;;;;;;;;;;;11.35;100.00;96248.91;5055488;28;19929;-75
2023/05/24 10:42:27;;;;;;;;;;;;;;;11.25;100.00;96245.16;5052546;28;19925;-75
2023/05/24 10:44:56;;;;;;;;;;;;;;;11.24;100.00;96248.69;5049394;28;19971;-75
2023/05/24 10:47:27;;;;;;;;;;;;;;;11.43;100.00;96238.09;5056847;28;19932;-75
2023/05/24 10:49:56;;;;;;;;;;;;;;;11.62;100.00;96233.47;5043902;28;19936;-75
2023/05/24 10:52:33;;;;;;;;;;;;;;;11.60;100.00;96233.53;5051968;28;20363;-75
2023/05/24 10:55:04;;;;;;;;;;;;;;;11.51;100.00;96223.72;5063005;28;20183;-74
2023/05/24 10:57:31;;;;;;;;;;;;;;;11.53;100.00;96232.28;5054754;28;19932;-76
2023/05/24 10:59:58;;;;;;;;;;;;;;;11.35;100.00;96230.75;5059766;28;19924;-76
2023/05/24 11:02:27;;;;;;;;;;;;;;;11.55;100.00;96229.56;5056519;28;19971;-76
2023/05/24 11:04:55;;;;;;;;;;;;;;;11.74;100.00;96224.94;5063661;28;19929;-76
2023/05/24 11:07:21;;;;;;;;;;;;;;;12.02;100.00;96212.94;5060889;28;19931;-76
2023/05/24 11:09:51;;;;;;;;;;;;;;;12.14;100.00;96219.97;5060355;28;20330;-76
2023/05/24 11:12:20;;;;;;;;;;;;;;;12.16;100.00;96212.91;5056104;28;19980;-76
2023/05/24 11:14:48;;;;;;;;;;;;;;;12.34;100.00;96216.94;5062818;28;19932;-76
2023/05/24 11:17:15;;;;;;;;;;;;;;;12.42;100.00;96208.69;5056090;28;20012;-77
2023/05/24 11:19:45;;;;;;;;;;;;;;;12.48;100.00;96203.09;5059283;28;19924;-75
2023/05/24 11:22:13;;;;;;;;;;;;;;;12.44;100.00;96200.78;5058328;28;19925;-75
2023/05/24 11:24:40;;;;;;;;;;;;;;;12.68;100.00;96199.25;5055580;28;19929;-75
2023/05/24 11:27:07;;;;;;;;;;;;;;;12.78;100.00;96199.47;5061460;28;19931;-75
2023/05/24 11:29:39;;;;;;;;;;;;;;;12.93;100.00;96198.47;5050562;28;19951;-75
2023/05/24 11:32:06;;;;;;;;;;;;;;;13.12;100.00;96199.84;5054791;28;19924;-75
2023/05/24 11:34:33;;;;;;;;;;;;;;;13.21;100.00;96197.50;5062539;28;19935;-75
2023/05/24 11:37:00;;;;;;;;;;;;;;;13.35;100.00;96191.41;5061397;28;19935;-73
2023/05/24 11:39:31;;;;;;;;;;;;;;;13.66;100.00;96184.94;5059523;28;19925;-73
2023/05/24 11:41:57;;;;;;;;;;;;;;;13.98;100.00;96187.13;5047611;28;20035;-73
2023/05/24 11:44:24;;;;;;;;;;;;;;;13.99;100.00;96183.56;5047585;28;20410;-74
2023/05/24 11:46:58;;;;;;;;;;;;;;;13.72;100.00;96186.28;5044384;28;19925;-74
2023/05/24 11:49:24;;;;;;;;;;;;;;;13.93;100.00;96179.59;5043155;28;20470;-74
2023/05/24 11:51:53;;;;;;;;;;;;;;;14.19;100.00;96180.38;5055918;28;19986;-77
2023/05/24 11:54:19;;;;;;;;;;;;;;;13.80;97.80;96176.19;5045685;28;19937;-77
2023/05/24 11:56:46;;;;;;;;;;;;;;;13.86;100.00;96170.56;5051012;28;20412;-76
2023/05/24 11:59:15;;;;;;;;;;;;;;;14.00;100.00;96162.63;5048586;28;19924;-78
2023/05/24 12:01:41;;;;;;;;;;;;;;;14.05;80.02;96164.88;5049847;28;19964;-78
2023/05/24 12:04:09;;;;;;;;;;;;;;;13.93;74.98;96173.56;5046117;28;20023;-77
2023/05/24 12:06:36;;;;;;;;;;;;;;;13.96;80.20;96162.94;5042595;28;19948;-74
2023/05/24 12:09:06;;;;;;;;;;;;;;;14.00;71.61;96170.44;5059959;28;20386;-81
2023/05/24 12:11:33;;;;;;;;;;;;;;;14.04;69.82;96173.66;5049371;28;19924;-81
2023/05/24 12:13:59;;;;;;;;;;;;;;;14.28;71.28;96161.50;5068788;28;19936;-80
2023/05/24 12:16:28;;;;;;;;;;;;;;;14.36;80.26;96160.13;5066182;28;19979;-80
2023/05/24 12:18:55;;;;;;;;;;;;;;;14.47;83.85;96162.78;5068312;28;20326;-80
2023/05/24 12:21:22;;;;;;;;;;;;;;;14.36;92.69;96160.97;5061105;28;19928;-80
2023/05/24 12:23:49;;;;;;;;;;;;;;;14.14;73.49;96174.66;5066584;28;19939;-80
2023/05/24 12:26:44;;;;;;;;;;;;;;;14.23;84.78;96165.38;5068062;28;19928;-79
2023/05/24 12:29:11;;;;;;;;;;;;;;;14.65;84.59;96166.72;5052164;28;19929;-78
2023/05/24 12:31:37;;;;;;;;;;;;;;;14.66;69.10;96163.16;5060471;28;19924;-81
2023/05/24 12:34:05;;;;;;;;;;;;;;;14.65;77.55;96166.72;5056805;28;19928;-79
2023/05/24 12:36:35;;;;;;;;;;;;;;;14.59;71.52;96159.31;5062104;28;20280;-81
2023/05/24 12:39:06;;;;;;;;;;;;;;;14.43;70.84;96156.97;5065662;28;19964;-81